Time;durP1;ratioP1;P1;durP2;ratioP2;P2;SDS_P1;SDS_P2;PMS_P1;PMS_P2;Temp;Humidity;BMP_temperature;BMP_pressure;BME280_temperature;BME280_humidity;BME280_pressure;Samples;Min_cycle;Max_cycle;Signal;HPM_P1;HPM_P2
2022/07/24 00:02:06;;;;;;;4.22;3.83;;;21.90;56.10;;;;;;5011841;28;20503;-51
2022/07/24 00:04:33;;;;;;;4.40;3.50;;;21.90;55.90;;;;;;5010662;28;20048;-52
2022/07/24 00:07:07;;;;;;;5.40;4.15;;;21.80;56.00;;;;;;5011558;28;20410;-52
2022/07/24 00:09:33;;;;;;;3.78;3.47;;;21.80;55.80;;;;;;5012447;28;20042;-51
2022/07/24 00:12:00;;;;;;;4.03;3.70;;;21.70;55.90;;;;;;5009944;28;20066;-51
2022/07/24 00:14:27;;;;;;;4.95;3.78;;;21.80;56.10;;;;;;5012938;28;20069;-49
2022/07/24 00:17:01;;;;;;;5.05;4.03;;;21.70;56.00;;;;;;5011611;28;20040;-51
2022/07/24 00:19:31;;;;;;;4.22;3.83;;;21.70;56.00;;;;;;5011940;28;20068;-52
2022/07/24 00:22:02;;;;;;;3.58;3.28;;;21.70;56.10;;;;;;5015144;28;20084;-48
2022/07/24 00:24:31;;;;;;;4.00;3.60;;;21.60;56.20;;;;;;5014282;28;20041;-51
2022/07/24 00:27:04;;;;;;;4.25;3.60;;;21.60;56.30;;;;;;5014539;28;20049;-48
2022/07/24 00:29:32;;;;;;;4.60;3.53;;;21.50;56.40;;;;;;4993942;28;20042;-48
2022/07/24 00:32:07;;;;;;;3.67;3.38;;;21.60;56.40;;;;;;5012841;28;20095;-51
2022/07/24 00:34:38;;;;;;;4.30;3.67;;;21.50;56.50;;;;;;5014011;28;20033;-52
2022/07/24 00:37:05;;;;;;;4.05;3.75;;;21.50;56.40;;;;;;5011591;28;20061;-51
2022/07/24 00:39:31;;;;;;;4.93;3.58;;;21.50;56.50;;;;;;5012192;28;20046;-47
2022/07/24 00:41:58;;;;;;;4.00;3.70;;;21.40;56.60;;;;;;5003802;28;20050;-47
2022/07/24 00:44:25;;;;;;;4.20;3.85;;;21.40;56.80;;;;;;5023556;28;20387;-52
2022/07/24 00:46:52;;;;;;;6.65;4.55;;;21.40;56.90;;;;;;5011348;28;20046;-51
2022/07/24 00:49:19;;;;;;;5.10;3.88;;;21.40;57.00;;;;;;5010997;28;20092;-47
2022/07/24 00:51:53;;;;;;;4.43;3.95;;;21.40;57.20;;;;;;5012649;28;20041;-49
2022/07/24 00:54:23;;;;;;;4.13;3.70;;;21.30;57.10;;;;;;5011544;28;20049;-51
2022/07/24 00:56:52;;;;;;;4.35;3.95;;;21.30;57.20;;;;;;5011347;28;20046;-51
2022/07/24 00:59:22;;;;;;;4.18;3.78;;;21.30;57.30;;;;;;5011252;28;20042;-50
2022/07/24 01:01:50;;;;;;;4.60;4.20;;;21.30;57.20;;;;;;4987547;28;20038;-52
2022/07/24 01:04:22;;;;;;;5.15;4.18;;;21.30;57.20;;;;;;5018519;28;20073;-50
2022/07/24 01:06:49;;;;;;;4.78;4.28;;;21.20;57.20;;;;;;5010916;28;20108;-50
2022/07/24 01:09:16;;;;;;;4.40;4.03;;;21.20;57.30;;;;;;5011494;28;20100;-52
2022/07/24 01:11:44;;;;;;;4.72;4.20;;;21.20;57.30;;;;;;5006243;28;20414;-52
2022/07/24 01:14:14;;;;;;;5.88;3.97;;;21.10;57.40;;;;;;5011595;28;20096;-47
2022/07/24 01:16:43;;;;;;;5.32;4.00;;;21.10;57.40;;;;;;5010981;28;20088;-51
2022/07/24 01:19:10;;;;;;;5.22;4.28;;;21.10;57.50;;;;;;4989248;28;20046;-51
2022/07/24 01:21:36;;;;;;;5.00;3.67;;;21.10;57.50;;;;;;5014458;28;20050;-49
2022/07/24 01:24:11;;;;;;;4.40;4.03;;;21.10;57.60;;;;;;5011167;28;20506;-51
2022/07/24 01:26:37;;;;;;;3.97;3.67;;;21.00;57.60;;;;;;5010851;28;20080;-50
2022/07/24 01:29:04;;;;;;;5.60;4.28;;;21.10;57.70;;;;;;5008509;28;20487;-50
2022/07/24 01:31:34;;;;;;;4.07;3.75;;;21.00;57.80;;;;;;5018103;28;20114;-51
2022/07/24 01:34:03;;;;;;;5.45;4.70;;;21.00;57.80;;;;;;5011285;28;20038;-51
2022/07/24 01:36:30;;;;;;;4.25;3.85;;;21.00;57.90;;;;;;5008807;28;20050;-47
2022/07/24 01:39:02;;;;;;;4.85;4.38;;;21.00;57.90;;;;;;5012699;28;20049;-48
2022/07/24 01:41:36;;;;;;;4.07;3.78;;;21.00;58.10;;;;;;5014241;28;20507;-49
2022/07/24 01:44:05;;;;;;;5.03;4.18;;;21.00;57.80;;;;;;5010727;28;20049;-50
2022/07/24 01:46:34;;;;;;;6.53;4.25;;;21.00;57.80;;;;;;5009312;28;20522;-50
2022/07/24 01:49:03;;;;;;;7.13;4.85;;;20.90;57.80;;;;;;5008916;28;20042;-49
2022/07/24 01:51:30;;;;;;;4.60;4.20;;;20.90;58.00;;;;;;5018276;28;20030;-50
2022/07/24 01:54:02;;;;;;;4.70;4.28;;;20.90;57.90;;;;;;5010890;28;20030;-47
2022/07/24 01:56:32;;;;;;;4.17;3.87;;;20.80;57.80;;;;;;5007972;28;20046;-49
2022/07/24 01:58:59;;;;;;;4.00;3.70;;;20.80;57.90;;;;;;5021976;28;20042;-52
2022/07/24 02:01:29;;;;;;;4.70;3.75;;;20.80;58.10;;;;;;5010784;28;20073;-51
2022/07/24 02:03:56;;;;;;;4.55;4.15;;;20.80;58.20;;;;;;5010062;28;20058;-51
2022/07/24 02:06:25;;;;;;;4.90;4.38;;;20.70;58.10;;;;;;5008067;28;20042;-51
2022/07/24 02:08:52;;;;;;;4.95;4.18;;;20.70;58.30;;;;;;5020850;28;20120;-49
2022/07/24 02:11:19;;;;;;;4.30;3.60;;;20.70;58.20;;;;;;5002745;28;20398;-52
2022/07/24 02:13:52;;;;;;;4.50;4.10;;;20.70;58.30;;;;;;5010741;28;20041;-46
2022/07/24 02:16:21;;;;;;;4.30;3.63;;;20.70;58.40;;;;;;5007199;28;20050;-53
2022/07/24 02:18:50;;;;;;;4.57;4.18;;;20.60;58.40;;;;;;5018320;28;20042;-46
2022/07/24 02:21:21;;;;;;;6.22;3.63;;;20.60;58.60;;;;;;5013956;28;20418;-50
2022/07/24 02:23:48;;;;;;;6.13;3.90;;;20.60;58.60;;;;;;5009095;28;20046;-46
2022/07/24 02:26:15;;;;;;;4.90;3.72;;;20.60;58.60;;;;;;5014690;28;20498;-51
2022/07/24 02:28:44;;;;;;;4.43;4.03;;;20.60;58.60;;;;;;5014398;28;20041;-52
2022/07/24 02:31:18;;;;;;;5.10;3.78;;;20.60;58.70;;;;;;5013448;28;20034;-48
2022/07/24 02:33:45;;;;;;;;;;;20.60;58.60;;;;;;5019009;28;20040;-47
2022/07/24 02:36:15;;;;;;;5.65;4.43;;;20.60;58.20;;;;;;5016710;28;19983;-46
2022/07/24 02:38:42;;;;;;;4.60;4.07;;;20.60;58.20;;;;;;5014109;28;20441;-50
2022/07/24 02:41:10;;;;;;;6.43;4.03;;;20.50;58.50;;;;;;5014008;28;20524;-52
2022/07/24 02:43:37;;;;;;;5.90;3.65;;;20.50;58.70;;;;;;5013366;28;20536;-46
2022/07/24 02:46:08;;;;;;;4.82;3.72;;;20.50;58.80;;;;;;5021506;28;20560;-51
2022/07/24 02:48:35;;;;;;;6.07;3.85;;;20.50;58.90;;;;;;5010188;28;20479;-47
2022/07/24 02:51:02;;;;;;;5.30;4.15;;;20.40;59.00;;;;;;5018209;28;20040;-51
2022/07/24 02:53:29;;;;;;;5.13;4.40;;;20.40;59.00;;;;;;5012242;28;20100;-50
2022/07/24 02:55:58;;;;;;;4.80;4.40;;;20.40;59.20;;;;;;5019846;28;20469;-52
2022/07/24 02:58:25;;;;;;;4.63;4.13;;;20.40;59.20;;;;;;5013557;28;20050;-48
2022/07/24 03:00:52;;;;;;;4.65;4.22;;;20.40;59.40;;;;;;5013563;28;20096;-52
2022/07/24 03:03:28;;;;;;;6.38;4.22;;;20.40;59.50;;;;;;5017265;28;20513;-51
2022/07/24 03:05:54;;;;;;;6.00;4.57;;;20.40;59.40;;;;;;5016351;28;20040;-51
2022/07/24 03:08:24;;;;;;;4.80;4.28;;;20.40;59.50;;;;;;5013827;28;20411;-51
2022/07/24 03:10:53;;;;;;;5.45;4.95;;;20.40;59.60;;;;;;5012687;28;20534;-51
2022/07/24 03:13:24;;;;;;;4.90;4.43;;;20.40;59.40;;;;;;5016924;28;20038;-47
2022/07/24 03:15:51;;;;;;;4.75;4.32;;;20.30;59.40;;;;;;5022100;28;20076;-52
2022/07/24 03:18:22;;;;;;;6.75;5.15;;;20.30;59.30;;;;;;5010353;28;20721;-50
2022/07/24 03:20:49;;;;;;;5.65;4.32;;;20.30;59.30;;;;;;5009356;28;20046;-50
2022/07/24 03:23:19;;;;;;;5.03;4.57;;;20.30;59.40;;;;;;5024971;28;20072;-51
2022/07/24 03:25:48;;;;;;;4.70;4.15;;;20.30;59.50;;;;;;5011781;28;20104;-47
2022/07/24 03:28:15;;;;;;;6.38;4.75;;;20.20;59.40;;;;;;5009237;28;20133;-50
2022/07/24 03:30:41;;;;;;;5.18;4.68;;;20.20;59.50;;;;;;5010907;28;20046;-50
2022/07/24 03:33:11;;;;;;;5.65;4.80;;;20.30;59.70;;;;;;5013749;28;20042;-50
2022/07/24 03:35:40;;;;;;;6.20;4.53;;;20.20;59.80;;;;;;5010661;28;20048;-49
2022/07/24 03:38:10;;;;;;;6.78;5.75;;;20.20;59.80;;;;;;5013002;28;20049;-51
2022/07/24 03:40:45;;;;;;;6.35;5.40;;;20.20;60.30;;;;;;5014083;28;20049;-50
2022/07/24 03:43:14;;;;;;;5.72;4.93;;;20.20;60.70;;;;;;5014491;28;20096;-52
2022/07/24 03:45:44;;;;;;;5.88;4.78;;;20.20;60.20;;;;;;5013124;28;20409;-49
2022/07/24 03:48:10;;;;;;;5.22;4.72;;;20.20;60.20;;;;;;5007452;28;20104;-47
2022/07/24 03:50:37;;;;;;;5.55;4.28;;;20.20;60.20;;;;;;5012658;28;20096;-46
2022/07/24 03:53:04;;;;;;;6.00;5.07;;;20.20;60.30;;;;;;5015888;28;20033;-46
2022/07/24 03:55:32;;;;;;;4.95;4.40;;;20.20;60.20;;;;;;5012582;28;20038;-52
2022/07/24 03:57:59;;;;;;;7.47;4.85;;;20.20;60.30;;;;;;5013453;28;20557;-49
2022/07/24 04:00:26;;;;;;;6.55;4.68;;;20.20;60.20;;;;;;5010656;28;20095;-48
2022/07/24 04:02:55;;;;;;;4.95;3.92;;;20.20;60.30;;;;;;5016980;28;20446;-46
2022/07/24 04:05:22;;;;;;;4.57;4.18;;;20.20;60.40;;;;;;5011684;28;20457;-52
2022/07/24 04:07:52;;;;;;;5.28;4.57;;;20.10;60.30;;;;;;5009772;28;20081;-49
2022/07/24 04:10:18;;;;;;;5.97;4.50;;;20.10;60.40;;;;;;5014583;28;20069;-46
2022/07/24 04:12:47;;;;;;;5.63;5.10;;;20.10;60.50;;;;;;5012087;28;20037;-47
2022/07/24 04:15:16;;;;;;;5.20;4.70;;;20.10;60.60;;;;;;5011719;28;20045;-51
2022/07/24 04:17:43;;;;;;;4.95;4.15;;;20.10;60.70;;;;;;5014707;28;20041;-49
2022/07/24 04:20:13;;;;;;;8.07;5.15;;;20.10;60.80;;;;;;5014117;28;20453;-51
2022/07/24 04:22:42;;;;;;;;;;;20.10;61.00;;;;;;5013051;28;20076;-48
2022/07/24 04:25:13;;;;;;;5.75;4.30;;;20.20;60.50;;;;;;5009485;28;19928;-52
2022/07/24 04:27:40;;;;;;;4.97;4.47;;;20.20;60.50;;;;;;5052996;22;20069;-46
2022/07/24 04:30:10;;;;;;;5.45;4.57;;;20.20;60.80;;;;;;5027943;28;20072;-49
2022/07/24 04:32:37;;;;;;;4.85;4.32;;;20.20;61.10;;;;;;5031579;28;20441;-47
2022/07/24 04:35:05;;;;;;;5.28;4.50;;;20.20;61.40;;;;;;5025179;28;20030;-47
2022/07/24 04:37:34;;;;;;;4.88;4.47;;;20.20;61.50;;;;;;5010788;28;20060;-50
2022/07/24 04:40:01;;;;;;;4.95;4.50;;;20.20;61.60;;;;;;5012528;28;20038;-48
2022/07/24 04:42:28;;;;;;;5.72;5.00;;;20.20;61.80;;;;;;5027516;28;20096;-50
2022/07/24 04:44:55;;;;;;;5.60;5.00;;;20.30;61.90;;;;;;5026731;28;20111;-48
2022/07/24 04:47:21;;;;;;;6.70;5.13;;;20.20;62.10;;;;;;5028939;28;20037;-49
2022/07/24 04:49:48;;;;;;;4.97;4.45;;;20.40;62.20;;;;;;5031703;28;20494;-46
2022/07/24 04:52:15;;;;;;;6.20;5.00;;;20.30;62.30;;;;;;5030597;28;20053;-49
2022/07/24 04:54:46;;;;;;;5.63;4.45;;;20.30;62.40;;;;;;5030923;28;20037;-47
2022/07/24 04:57:17;;;;;;;6.57;5.25;;;20.40;63.20;;;;;;5028592;28;20663;-51
2022/07/24 04:59:45;;;;;;;5.82;5.30;;;20.40;62.60;;;;;;5031430;28;20042;-51
2022/07/24 05:02:11;;;;;;;6.10;5.13;;;20.50;62.70;;;;;;5031509;28;20095;-51
2022/07/24 05:04:42;;;;;;;6.97;5.18;;;20.50;62.80;;;;;;5028502;28;20041;-48
2022/07/24 05:07:09;;;;;;;5.85;5.35;;;20.60;63.00;;;;;;5029595;28;20049;-47
2022/07/24 05:09:38;;;;;;;6.50;5.40;;;20.60;62.80;;;;;;5031321;28;20080;-49
2022/07/24 05:12:05;;;;;;;6.20;5.00;;;20.60;62.90;;;;;;5031343;28;20041;-48
2022/07/24 05:14:32;;;;;;;5.95;5.07;;;20.70;62.40;;;;;;5026938;28;20087;-51
2022/07/24 05:17:01;;;;;;;6.68;5.55;;;20.70;62.80;;;;;;5030319;28;20049;-46
2022/07/24 05:19:28;;;;;;;7.38;6.60;;;20.80;62.70;;;;;;5031347;28;20054;-49
2022/07/24 05:21:55;;;;;;;24.10;8.60;;;20.80;62.40;;;;;;5028108;28;20049;-45
2022/07/24 05:24:25;;;;;;;7.35;6.60;;;20.90;62.00;;;;;;5028722;28;20513;-48
2022/07/24 05:26:52;;;;;;;7.40;6.63;;;21.00;61.80;;;;;;5030614;28;20119;-51
2022/07/24 05:29:19;;;;;;;7.28;6.35;;;21.00;61.80;;;;;;5011491;28;20049;-51
2022/07/24 05:31:46;;;;;;;9.02;6.70;;;21.10;61.90;;;;;;5020292;28;20084;-50
2022/07/24 05:34:13;;;;;;;9.60;7.78;;;21.20;61.70;;;;;;5030920;28;20053;-49
2022/07/24 05:36:40;;;;;;;8.90;8.00;;;21.20;61.40;;;;;;5030836;28;20498;-49
2022/07/24 05:39:12;;;;;;;10.85;8.23;;;21.30;61.40;;;;;;5031206;28;20076;-50
2022/07/24 05:41:41;;;;;;;9.65;8.65;;;21.30;61.50;;;;;;5024056;28;20033;-48
2022/07/24 05:44:10;;;;;;;10.45;9.40;;;21.40;61.30;;;;;;5029034;28;20501;-50
2022/07/24 05:46:37;;;;;;;11.27;9.80;;;21.40;61.10;;;;;;5024168;28;20406;-46
2022/07/24 05:49:11;;;;;;;10.68;9.30;;;21.50;61.20;;;;;;5030722;28;20080;-48
2022/07/24 05:51:46;;;;;;;11.52;9.88;;;21.50;61.30;;;;;;5030680;28;20037;-50
2022/07/24 05:54:13;;;;;;;13.38;11.98;;;21.60;61.40;;;;;;5030055;28;20045;-46
2022/07/24 05:56:45;;;;;;;13.85;11.18;;;21.60;61.00;;;;;;5028990;28;20048;-45
2022/07/24 05:59:15;;;;;;;16.10;13.02;;;21.70;61.20;;;;;;5034760;28;20041;-46
2022/07/24 06:01:43;;;;;;;16.73;13.10;;;21.70;61.00;;;;;;5031210;28;20030;-50
2022/07/24 06:04:11;;;;;;;16.35;14.32;;;21.70;60.90;;;;;;5034815;28;20532;-49
2022/07/24 06:06:43;;;;;;;18.30;14.45;;;21.80;60.90;;;;;;5034563;28;20037;-50
2022/07/24 06:09:10;;;;;;;19.33;15.23;;;21.80;60.90;;;;;;5034897;28;20121;-45
2022/07/24 06:11:41;;;;;;;20.35;15.57;;;21.90;60.80;;;;;;5028372;28;20046;-48
2022/07/24 06:14:08;;;;;;;20.02;16.30;;;21.90;61.00;;;;;;5029824;28;20056;-47
2022/07/24 06:16:35;;;;;;;19.10;15.18;;;22.00;60.80;;;;;;5028176;28;20046;-48
2022/07/24 06:19:04;;;;;;;20.85;15.60;;;22.00;61.00;;;;;;5030344;28;20042;-46
2022/07/24 06:21:32;;;;;;;19.75;15.68;;;22.10;61.10;;;;;;5030170;28;20048;-47
2022/07/24 06:23:58;;;;;;;20.65;16.95;;;22.10;61.00;;;;;;5032192;28;20452;-48
2022/07/24 06:26:29;;;;;;;21.73;15.10;;;22.10;61.00;;;;;;5031671;28;20800;-51
2022/07/24 06:29:04;;;;;;;19.77;15.75;;;22.20;61.00;;;;;;5029577;28;20053;-48
2022/07/24 06:31:44;;;;;;;21.92;15.38;;;22.30;60.80;;;;;;5029914;28;20072;-48
2022/07/24 06:34:11;;;;;;;20.50;15.40;;;22.30;60.70;;;;;;5026659;28;20046;-52
2022/07/24 06:36:45;;;;;;;17.35;15.25;;;22.30;60.90;;;;;;5031835;28;20040;-49
2022/07/24 06:39:17;;;;;;;17.73;15.02;;;22.40;60.80;;;;;;5029798;28;20045;-48
2022/07/24 06:41:43;;;;;;;19.90;14.40;;;22.40;60.80;;;;;;5014069;28;20119;-53
2022/07/24 06:44:23;;;;;;;17.58;13.63;;;22.50;60.70;;;;;;5011972;28;20049;-49
2022/07/24 06:46:59;;;;;;;21.83;15.25;;;22.50;60.60;;;;;;5025108;28;20053;-52
2022/07/24 06:49:28;;;;;;;17.00;13.93;;;22.60;60.50;;;;;;5019283;28;20124;-52
2022/07/24 06:51:54;;;;;;;18.48;13.90;;;22.60;60.30;;;;;;5027284;28;20060;-51
2022/07/24 06:54:21;;;;;;;17.67;13.93;;;22.70;60.40;;;;;;5028458;28;20099;-49
2022/07/24 06:56:48;;;;;;;17.90;13.50;;;22.70;60.30;;;;;;5024787;28;20095;-47
2022/07/24 06:59:18;;;;;;;17.77;13.65;;;22.80;60.50;;;;;;5031869;28;20037;-48
2022/07/24 07:01:44;;;;;;;18.70;13.43;;;22.80;60.60;;;;;;5032954;28;20041;-47
2022/07/24 07:04:11;;;;;;;18.05;13.48;;;22.90;60.40;;;;;;5032168;28;20103;-47
2022/07/24 07:06:38;;;;;;;14.52;13.02;;;22.90;60.10;;;;;;5026671;28;20517;-48
2022/07/24 07:09:10;;;;;;;16.95;13.77;;;23.00;60.20;;;;;;5033461;28;20073;-48
2022/07/24 07:11:37;;;;;;;18.05;14.68;;;23.00;60.30;;;;;;5033261;28;20529;-51
2022/07/24 07:14:04;;;;;;;17.73;13.07;;;23.00;60.00;;;;;;5025119;28;20037;-49
2022/07/24 07:16:31;;;;;;;16.48;13.38;;;23.20;60.20;;;;;;5008811;28;20045;-50
2022/07/24 07:18:58;;;;;;;17.13;13.10;;;23.20;59.90;;;;;;5032772;28;20112;-47
2022/07/24 07:21:24;;;;;;;16.98;13.73;;;23.20;60.10;;;;;;5033051;28;20046;-49
2022/07/24 07:23:52;;;;;;;19.48;13.15;;;23.30;60.00;;;;;;5030092;28;20049;-47
2022/07/24 07:26:19;;;;;;;18.20;14.75;;;23.30;59.90;;;;;;5031388;28;20107;-47
2022/07/24 07:28:46;;;;;;;17.20;13.82;;;23.40;59.80;;;;;;5028569;28;20053;-47
2022/07/24 07:31:13;;;;;;;18.83;13.70;;;23.40;59.50;;;;;;5026690;28;20551;-51
2022/07/24 07:33:40;;;;;;;20.73;14.15;;;23.50;59.60;;;;;;5031591;28;20057;-51
2022/07/24 07:36:08;;;;;;;17.17;13.82;;;23.60;59.80;;;;;;5024429;28;20172;-47
2022/07/24 07:38:38;;;;;;;16.43;13.27;;;23.60;59.80;;;;;;5032770;28;20037;-49
2022/07/24 07:41:05;;;;;;;23.95;15.93;;;23.70;59.60;;;;;;5022617;28;20069;-48
2022/07/24 07:43:36;;;;;;;18.23;13.43;;;23.70;59.50;;;;;;5029117;28;20111;-47
2022/07/24 07:46:03;;;;;;;18.17;14.02;;;23.80;59.70;;;;;;5025219;28;20347;-52
2022/07/24 07:48:30;;;;;;;16.73;14.80;;;23.80;59.30;;;;;;5032146;28;20099;-50
2022/07/24 07:51:00;;;;;;;21.58;15.05;;;23.90;59.20;;;;;;5028829;28;20494;-52
2022/07/24 07:53:27;;;;;;;19.45;15.68;;;23.90;59.40;;;;;;5027478;28;20099;-47
2022/07/24 07:55:54;;;;;;;21.92;16.13;;;24.00;58.80;;;;;;5031746;28;20033;-51
2022/07/24 07:58:22;;;;;;;19.23;14.10;;;24.00;58.60;;;;;;5029748;28;20445;-52
2022/07/24 08:00:49;;;;;;;15.73;13.90;;;24.10;58.70;;;;;;5020985;28;20095;-53
2022/07/24 08:03:16;;;;;;;15.52;13.85;;;24.20;58.70;;;;;;5031434;28;20509;-47
2022/07/24 08:05:48;;;;;;;16.33;14.32;;;24.20;58.60;;;;;;5030677;28;20060;-50
2022/07/24 08:08:16;;;;;;;18.70;13.80;;;24.20;58.50;;;;;;5023910;28;20494;-56
2022/07/24 08:10:43;;;;;;;18.98;15.15;;;24.30;58.50;;;;;;5029767;28;20525;-49
2022/07/24 08:13:11;;;;;;;15.52;13.93;;;24.30;58.30;;;;;;5025908;28;20063;-49
2022/07/24 08:15:38;;;;;;;18.65;13.30;;;24.40;58.40;;;;;;5031976;28;20500;-52
2022/07/24 08:18:05;;;;;;;17.08;13.90;;;24.50;58.50;;;;;;5031489;28;20418;-47
2022/07/24 08:20:32;;;;;;;17.77;14.13;;;24.50;58.60;;;;;;5025936;28;20559;-47
2022/07/24 08:23:00;;;;;;;15.82;13.02;;;24.60;58.30;;;;;;5029282;28;20076;-48
2022/07/24 08:25:27;;;;;;;18.42;13.43;;;24.60;57.80;;;;;;5023941;28;20033;-50
2022/07/24 08:27:54;;;;;;;15.82;14.02;;;24.70;57.70;;;;;;5026526;28;20107;-50
2022/07/24 08:30:21;;;;;;;14.27;12.75;;;24.70;57.90;;;;;;5028463;28;20038;-50
2022/07/24 08:32:50;;;;;;;15.73;12.13;;;24.80;57.90;;;;;;5018687;28;20034;-49
2022/07/24 08:35:17;;;;;;;10.95;9.65;;;24.90;57.40;;;;;;5030800;28;20033;-50
2022/07/24 08:37:44;;;;;;;10.85;9.63;;;24.90;57.50;;;;;;5031801;28;20065;-49
2022/07/24 08:40:14;;;;;;;13.27;10.35;;;25.00;57.40;;;;;;5031698;28;20041;-51
2022/07/24 08:42:42;;;;;;;13.50;11.07;;;25.00;57.40;;;;;;5025369;28;20562;-49
2022/07/24 08:45:09;;;;;;;11.23;7.93;;;25.10;57.30;;;;;;5031623;28;20037;-51
2022/07/24 08:47:38;;;;;;;13.05;9.40;;;25.20;57.30;;;;;;5031442;28;20596;-50
2022/07/24 08:50:07;;;;;;;11.05;8.68;;;25.20;56.60;;;;;;5027096;28;20038;-49
2022/07/24 08:52:35;;;;;;;11.57;10.43;;;25.30;56.50;;;;;;5028954;28;20048;-48
2022/07/24 08:55:10;;;;;;;9.88;8.60;;;25.30;56.40;;;;;;5031652;28;20041;-48
2022/07/24 08:57:38;;;;;;;12.32;8.40;;;25.40;56.20;;;;;;5030544;28;20068;-51
2022/07/24 09:00:06;;;;;;;10.05;7.15;;;25.50;56.30;;;;;;5029921;28;20045;-50
2022/07/24 09:02:37;;;;;;;10.48;8.13;;;25.60;56.50;;;;;;5028719;28;20522;-49
2022/07/24 09:05:05;;;;;;;8.07;6.93;;;25.60;55.30;;;;;;5031206;28;20033;-49
2022/07/24 09:07:31;;;;;;;8.13;7.32;;;25.70;55.20;;;;;;5028854;28;20088;-47
2022/07/24 09:10:05;;;;;;;11.65;9.45;;;25.80;55.40;;;;;;5030177;28;20087;-45
2022/07/24 09:12:34;;;;;;;12.43;9.60;;;25.90;54.50;;;;;;5027542;28;20448;-50
2022/07/24 09:15:09;;;;;;;9.98;8.90;;;26.00;54.50;;;;;;5031097;28;20091;-50
2022/07/24 09:17:47;;;;;;;8.60;7.70;;;26.10;54.00;;;;;;5031023;28;20099;-47
2022/07/24 09:20:15;;;;;;;7.00;6.32;;;26.10;53.50;;;;;;5029140;28;20053;-49
2022/07/24 09:22:43;;;;;;;8.52;7.22;;;26.20;53.60;;;;;;5026909;28;20437;-49
2022/07/24 09:25:16;;;;;;;7.65;6.88;;;26.30;54.10;;;;;;5030828;28;20571;-49
2022/07/24 09:27:54;;;;;;;9.50;7.88;;;26.40;53.60;;;;;;5030303;28;20095;-49
2022/07/24 09:30:29;;;;;;;9.40;7.45;;;26.40;53.00;;;;;;5031387;28;20065;-48
2022/07/24 09:33:22;;;;;;;7.50;6.72;;;26.50;53.20;;;;;;5030872;28;20069;-50
2022/07/24 09:35:51;;;;;;;7.80;7.03;;;26.60;52.80;;;;;;5023932;28;20049;-50
2022/07/24 09:38:24;;;;;;;7.93;7.10;;;26.70;52.20;;;;;;5030245;28;20076;-51
2022/07/24 09:40:56;;;;;;;9.65;6.75;;;26.70;51.60;;;;;;5030556;28;20099;-49
2022/07/24 09:43:28;;;;;;;9.27;7.68;;;26.80;51.20;;;;;;5028986;28;20103;-49
2022/07/24 09:46:08;;;;;;;8.85;7.97;;;26.90;51.00;;;;;;5021265;28;20060;-49
2022/07/24 09:48:40;;;;;;;9.85;7.28;;;27.00;50.50;;;;;;5025622;28;20057;-51
2022/07/24 09:51:15;;;;;;;8.13;7.32;;;27.00;50.80;;;;;;5029707;28;20532;-52
2022/07/24 09:53:44;;;;;;;7.88;6.18;;;27.10;50.10;;;;;;5007639;28;20104;-51
2022/07/24 09:56:16;;;;;;;9.15;8.15;;;27.10;50.70;;;;;;5028821;28;20107;-51
2022/07/24 09:58:45;;;;;;;8.75;7.55;;;27.20;50.60;;;;;;5030516;28;20042;-49
2022/07/24 10:01:15;;;;;;;12.48;8.18;;;27.30;50.60;;;;;;5026277;28;20046;-50
2022/07/24 10:03:44;;;;;;;8.43;6.82;;;27.40;49.90;;;;;;5028718;28;20509;-50
2022/07/24 10:06:13;;;;;;;11.27;7.63;;;27.40;50.40;;;;;;5027570;28;20453;-50
2022/07/24 10:08:42;;;;;;;9.48;8.32;;;27.50;49.90;;;;;;5030236;28;20099;-51
2022/07/24 10:11:10;;;;;;;7.10;6.43;;;27.60;49.60;;;;;;5030468;28;20049;-50
2022/07/24 10:13:37;;;;;;;9.45;8.13;;;27.60;49.80;;;;;;5022474;28;20510;-47
2022/07/24 10:16:13;;;;;;;8.52;6.53;;;27.70;49.30;;;;;;5012396;28;20033;-51
2022/07/24 10:18:48;;;;;;;7.85;6.97;;;27.70;48.90;;;;;;5030350;28;20084;-50
2022/07/24 10:21:18;;;;;;;7.90;7.13;;;27.80;49.10;;;;;;5027728;28;20045;-50
2022/07/24 10:24:01;;;;;;;7.95;6.32;;;27.90;48.90;;;;;;5027415;28;20045;-52
2022/07/24 10:27:02;;;;;;;9.23;6.18;;;27.90;49.30;;;;;;5026595;28;20038;-50
2022/07/24 10:29:32;;;;;;;7.95;6.90;;;28.00;49.30;;;;;;5010621;28;20077;-51
2022/07/24 10:32:00;;;;;;;8.07;6.80;;;28.10;48.80;;;;;;5025469;28;20045;-50
2022/07/24 10:34:51;;;;;;;8.68;7.60;;;28.20;48.50;;;;;;5020145;28;20041;-50
2022/07/24 10:37:36;;;;;;;8.23;6.00;;;28.20;47.50;;;;;;5029925;28;20042;-51
2022/07/24 10:40:27;;;;;;;7.45;6.75;;;28.30;48.60;;;;;;5028860;28;20048;-50
2022/07/24 10:43:09;;;;;;;9.43;7.38;;;28.30;47.50;;;;;;5026546;28;20043;-50
2022/07/24 10:46:00;;;;;;;6.75;5.75;;;28.40;47.20;;;;;;5033363;28;20045;-50
2022/07/24 10:48:30;;;;;;;7.40;6.45;;;28.40;47.30;;;;;;5007888;28;20049;-50
2022/07/24 10:51:00;;;;;;;8.15;6.88;;;28.50;47.20;;;;;;5028914;28;20276;-51
2022/07/24 10:53:45;;;;;;;7.50;6.60;;;28.50;46.80;;;;;;5031041;28;20494;-51
2022/07/24 10:56:30;;;;;;;6.93;6.22;;;28.60;46.50;;;;;;5029627;22;20108;-46
2022/07/24 10:59:08;;;;;;;7.10;5.55;;;28.60;46.90;;;;;;5005627;28;20101;-46
2022/07/24 11:01:39;;;;;;;8.98;5.97;;;28.70;47.10;;;;;;4988641;28;20038;-48
2022/07/24 11:04:19;;;;;;;6.85;6.15;;;28.70;47.00;;;;;;4997224;28;20125;-46
2022/07/24 11:06:50;;;;;;;7.22;6.53;;;28.80;46.60;;;;;;5009300;28;20046;-45
2022/07/24 11:09:22;;;;;;;6.45;5.85;;;28.90;46.80;;;;;;4999243;28;20042;-46
2022/07/24 11:11:51;;;;;;;5.50;5.03;;;28.90;46.60;;;;;;5001903;28;20096;-45
2022/07/24 11:14:23;;;;;;;6.25;4.65;;;29.00;46.20;;;;;;5005614;28;20557;-44
2022/07/24 11:16:51;;;;;;;6.38;4.75;;;29.10;46.20;;;;;;5013052;28;20044;-46
2022/07/24 11:19:18;;;;;;;5.05;4.05;;;29.20;45.90;;;;;;4989773;28;20038;-46
2022/07/24 11:22:01;;;;;;;5.10;4.70;;;29.20;45.70;;;;;;5005702;28;20053;-45
2022/07/24 11:24:30;;;;;;;4.93;4.53;;;29.30;45.50;;;;;;5000244;28;20507;-48
2022/07/24 11:26:59;;;;;;;5.38;4.85;;;29.30;45.10;;;;;;4990818;28;20046;-47
2022/07/24 11:29:37;;;;;;;4.30;3.85;;;29.30;44.50;;;;;;5001314;28;20132;-46
2022/07/24 11:32:10;;;;;;;4.70;4.30;;;29.40;44.70;;;;;;5005048;28;20490;-46
2022/07/24 11:34:51;;;;;;;4.65;4.20;;;29.40;45.50;;;;;;4998593;28;20069;-47
2022/07/24 11:37:19;;;;;;;4.25;3.85;;;29.50;44.40;;;;;;4991365;28;20046;-46
2022/07/24 11:39:49;;;;;;;10.70;5.32;;;29.50;45.00;;;;;;5000004;28;20561;-45
2022/07/24 11:42:16;;;;;;;5.93;4.32;;;29.50;44.40;;;;;;5004470;28;20045;-49
2022/07/24 11:44:48;;;;;;;5.30;4.90;;;29.60;44.50;;;;;;5013366;28;20045;-46
2022/07/24 11:47:17;;;;;;;5.17;4.87;;;29.60;44.50;;;;;;5001097;28;20641;-47
2022/07/24 11:49:47;;;;;;;6.05;4.85;;;29.60;44.90;;;;;;4992939;28;20062;-46
2022/07/24 11:52:30;;;;;;;5.40;4.90;;;29.70;44.40;;;;;;4993329;28;20046;-47
2022/07/24 11:55:04;;;;;;;6.45;5.38;;;29.80;44.60;;;;;;4989519;28;20046;-47
2022/07/24 11:57:37;;;;;;;5.25;4.78;;;29.80;44.40;;;;;;4992624;28;20042;-45
2022/07/24 12:00:27;;;;;;;5.80;4.68;;;29.90;44.60;;;;;;4997529;28;20112;-51
2022/07/24 12:03:01;;;;;;;5.68;5.18;;;30.00;44.90;;;;;;4991673;28;20042;-50
2022/07/24 12:05:31;;;;;;;4.75;4.32;;;30.00;44.50;;;;;;5004307;28;20046;-50
2022/07/24 12:07:59;;;;;;;5.97;4.70;;;30.10;44.60;;;;;;5010158;28;20100;-48
2022/07/24 12:10:27;;;;;;;5.70;4.47;;;30.30;44.20;;;;;;5002190;28;20088;-50
2022/07/24 12:12:55;;;;;;;4.40;4.00;;;30.30;44.40;;;;;;5000149;28;20046;-51
2022/07/24 12:15:24;;;;;;;4.78;4.38;;;30.40;44.60;;;;;;4997508;28;20056;-51
2022/07/24 12:18:00;;;;;;;5.00;4.60;;;30.50;43.90;;;;;;4989867;28;20069;-50
2022/07/24 12:20:29;;;;;;;5.35;4.88;;;30.60;43.10;;;;;;4994015;28;20454;-49
2022/07/24 12:23:00;;;;;;;5.63;3.90;;;30.70;43.50;;;;;;4992516;28;20411;-47
2022/07/24 12:25:28;;;;;;;4.95;4.35;;;30.80;42.90;;;;;;4992178;28;20403;-48
2022/07/24 12:28:08;;;;;;;5.10;4.45;;;30.90;43.10;;;;;;4998353;28;20100;-46
2022/07/24 12:30:38;;;;;;;4.35;3.83;;;31.00;42.80;;;;;;4999604;28;20073;-47
2022/07/24 12:33:20;;;;;;;4.93;4.43;;;31.10;42.70;;;;;;4999910;28;20046;-49
2022/07/24 12:35:55;;;;;;;4.82;3.88;;;31.10;42.40;;;;;;4998733;28;20046;-46
2022/07/24 12:38:30;;;;;;;4.13;3.72;;;31.30;42.00;;;;;;5003822;28;20041;-50
2022/07/24 12:41:09;;;;;;;3.67;3.33;;;31.30;41.90;;;;;;4998972;28;20039;-50
2022/07/24 12:43:56;;;;;;;3.78;3.47;;;31.40;41.80;;;;;;4999300;28;20183;-45
2022/07/24 12:46:29;;;;;;;4.25;3.83;;;31.60;41.70;;;;;;5006033;28;20104;-48
2022/07/24 12:49:11;;;;;;;3.20;2.92;;;31.60;42.00;;;;;;5001824;28;20085;-51
2022/07/24 12:51:55;;;;;;;3.38;2.95;;;31.70;41.60;;;;;;4998753;28;20035;-50
2022/07/24 12:54:28;;;;;;;3.45;3.22;;;31.90;41.60;;;;;;5002382;28;20096;-51
2022/07/24 12:57:00;;;;;;;3.60;3.30;;;31.90;42.00;;;;;;5000301;28;20057;-47
2022/07/24 12:59:32;;;;;;;5.57;3.50;;;32.10;40.30;;;;;;4998317;28;20499;-50